createdAt,value
2018-04-07T00:00:45.350Z,0.00
2018-04-07T00:01:45.325Z,0.00
2018-04-07T00:02:45.314Z,0.00
2018-04-07T00:03:45.303Z,0.00
2018-04-07T00:04:45.291Z,0.00
2018-04-07T00:05:45.283Z,0.00
2018-04-07T00:06:45.287Z,0.00
2018-04-07T00:07:45.256Z,0.00
2018-04-07T00:08:45.291Z,0.00
2018-04-07T00:09:45.260Z,0.00
2018-04-07T00:10:45.228Z,0.00
2018-04-07T00:11:45.213Z,0.00
2018-04-07T00:12:45.198Z,0.00
2018-04-07T00:13:45.185Z,0.00
2018-04-07T00:14:45.200Z,0.00
2018-04-07T00:15:45.162Z,0.00
2018-04-07T00:16:45.151Z,0.00
2018-04-07T00:17:45.138Z,0.00
2018-04-07T00:18:45.126Z,0.00
2018-04-07T00:19:45.114Z,0.00
2018-04-07T00:20:45.105Z,0.00
2018-04-07T00:21:45.100Z,0.00
2018-04-07T00:22:45.080Z,0.00
2018-04-07T00:23:45.067Z,0.00
2018-04-07T00:24:45.056Z,0.00
2018-04-07T00:25:45.046Z,0.00
2018-04-07T00:26:45.048Z,0.00
2018-04-07T00:27:45.020Z,0.00
2018-04-07T00:28:45.009Z,0.00
2018-04-07T00:29:44.995Z,0.00
2018-04-07T00:30:44.984Z,0.00
2018-04-07T00:31:44.974Z,0.00
2018-04-07T00:32:44.961Z,0.00
2018-04-07T00:33:44.949Z,0.00
2018-04-07T00:34:44.937Z,0.00
2018-04-07T00:35:44.925Z,0.00
2018-04-07T00:36:44.917Z,0.00
2018-04-07T00:37:44.909Z,0.00
2018-04-07T00:38:44.890Z,0.00
2018-04-07T00:39:44.879Z,0.00
2018-04-07T00:40:44.895Z,0.00
2018-04-07T00:41:44.854Z,0.00
2018-04-07T00:42:44.842Z,0.00
2018-04-07T00:43:45.038Z,0.00
2018-04-07T00:44:44.818Z,0.00
2018-04-07T00:45:44.806Z,0.00
2018-04-07T00:46:44.811Z,0.00
2018-04-07T00:47:44.782Z,0.00
2018-04-07T00:48:44.774Z,0.00
2018-04-07T00:49:44.758Z,0.00
2018-04-07T00:50:44.746Z,0.00
2018-04-07T00:51:44.735Z,0.00
2018-04-07T00:52:44.746Z,0.00
2018-04-07T00:53:44.710Z,0.00
2018-04-07T00:54:44.699Z,0.00
2018-04-07T00:55:44.691Z,0.00
2018-04-07T00:56:44.678Z,0.00
2018-04-07T00:57:44.665Z,0.00
2018-04-07T00:58:44.671Z,0.00
2018-04-07T00:59:44.640Z,0.00
2018-04-07T01:00:44.628Z,0.00
2018-04-07T01:01:44.615Z,0.00
2018-04-07T01:02:44.606Z,0.00
2018-04-07T01:03:44.593Z,0.00
2018-04-07T01:04:44.581Z,0.00
2018-04-07T01:05:44.568Z,0.00
2018-04-07T01:06:44.556Z,0.00
2018-04-07T01:07:44.550Z,0.00
2018-04-07T01:08:44.538Z,0.00
2018-04-07T01:09:44.574Z,0.00
2018-04-07T01:10:44.510Z,0.00
2018-04-07T01:11:44.497Z,0.00
2018-04-07T01:12:44.536Z,0.00
2018-04-07T01:13:44.486Z,0.00
2018-04-07T01:14:44.461Z,0.00
2018-04-07T01:15:44.495Z,0.00
2018-04-07T01:16:44.438Z,0.00
2018-04-07T01:17:44.428Z,0.00
2018-04-07T01:18:44.421Z,0.00
2018-04-07T01:19:44.402Z,0.00
2018-04-07T01:20:44.390Z,0.00
2018-04-07T01:21:44.377Z,0.00
2018-04-07T01:22:44.367Z,0.00
2018-04-07T01:23:44.355Z,0.00
2018-04-07T01:24:44.364Z,0.00
2018-04-07T01:25:44.330Z,0.00
2018-04-07T01:26:44.318Z,0.00
2018-04-07T01:27:44.307Z,0.00
2018-04-07T01:28:44.306Z,0.00
2018-04-07T01:29:44.283Z,0.00
2018-04-07T01:30:44.277Z,0.00
2018-04-07T01:31:44.259Z,0.00
2018-04-07T01:32:44.247Z,0.00
2018-04-07T01:33:44.234Z,0.00
2018-04-07T01:34:44.223Z,0.00
2018-04-07T01:35:44.212Z,0.00
2018-04-07T01:36:44.200Z,0.00
2018-04-07T01:37:44.187Z,0.00
2018-04-07T01:38:44.176Z,0.00
2018-04-07T01:39:44.183Z,0.00
2018-04-07T01:40:44.152Z,0.00
2018-04-07T01:41:44.343Z,0.00
2018-04-07T01:42:44.128Z,0.00
2018-04-07T01:43:44.117Z,0.00
2018-04-07T01:44:44.117Z,0.00
2018-04-07T01:45:44.097Z,0.00
2018-04-07T01:46:44.081Z,0.00
2018-04-07T01:47:44.107Z,0.00
2018-04-07T01:48:44.058Z,0.00
2018-04-07T01:49:44.048Z,0.00
2018-04-07T01:50:44.034Z,0.00
2018-04-07T01:51:44.022Z,0.00
2018-04-07T01:52:44.010Z,0.00
2018-04-07T01:53:43.998Z,0.00
2018-04-07T01:54:43.997Z,0.00
2018-04-07T01:55:43.974Z,0.00
2018-04-07T01:56:43.973Z,0.00
2018-04-07T01:57:43.951Z,0.00
2018-04-07T01:58:43.939Z,0.00
2018-04-07T01:59:43.926Z,0.00
2018-04-07T02:00:43.919Z,0.00
2018-04-07T02:01:43.902Z,0.00
2018-04-07T02:02:43.890Z,0.00
2018-04-07T02:03:43.879Z,0.00
2018-04-07T02:04:43.867Z,0.00
2018-04-07T02:05:43.855Z,0.00
2018-04-07T02:06:43.843Z,0.00
2018-04-07T02:07:43.833Z,0.00
2018-04-07T02:08:43.820Z,0.00
2018-04-07T02:09:43.807Z,0.00
2018-04-07T02:10:43.810Z,0.00
2018-04-07T02:11:43.784Z,0.00
2018-04-07T02:12:43.975Z,0.00
2018-04-07T02:13:43.759Z,0.00
2018-04-07T02:14:43.748Z,0.00
2018-04-07T02:15:43.760Z,0.00
2018-04-07T02:16:43.731Z,0.00
2018-04-07T02:17:43.711Z,0.00
2018-04-07T02:18:43.739Z,0.00
2018-04-07T02:19:43.688Z,0.00
2018-04-07T02:20:43.676Z,0.00
2018-04-07T02:21:43.667Z,0.00
2018-04-07T02:22:43.656Z,0.00
2018-04-07T02:23:43.640Z,0.00
2018-04-07T02:24:43.628Z,0.00
2018-04-07T02:25:43.616Z,0.00
2018-04-07T02:26:43.609Z,0.00
2018-04-07T02:27:43.606Z,0.00
2018-04-07T02:28:43.581Z,0.00
2018-04-07T02:29:43.568Z,0.00
2018-04-07T02:30:43.556Z,0.00
2018-04-07T02:31:43.561Z,0.00
2018-04-07T02:32:43.533Z,0.00
2018-04-07T02:33:43.533Z,0.00
2018-04-07T02:34:43.509Z,0.00
2018-04-07T02:35:43.498Z,0.00
2018-04-07T02:36:43.486Z,0.00
2018-04-07T02:37:43.473Z,0.00
2018-04-07T02:38:43.461Z,0.00
2018-04-07T02:39:43.457Z,0.00
2018-04-07T02:40:43.438Z,0.00
2018-04-07T02:41:43.428Z,0.00
2018-04-07T02:42:43.426Z,0.00
2018-04-07T02:43:43.402Z,0.00
2018-04-07T02:44:43.436Z,0.00
2018-04-07T02:45:43.377Z,0.00
2018-04-07T02:46:43.366Z,0.00
2018-04-07T02:47:43.364Z,0.00
2018-04-07T02:48:43.343Z,0.00
2018-04-07T02:49:43.330Z,0.00
2018-04-07T02:50:43.351Z,0.00
2018-04-07T02:51:43.306Z,0.00
2018-04-07T02:52:43.293Z,0.00
2018-04-07T02:53:43.280Z,0.00
2018-04-07T02:54:43.269Z,0.00
2018-04-07T02:55:43.260Z,0.00
2018-04-07T02:56:43.245Z,0.00
2018-04-07T02:57:43.248Z,0.00
2018-04-07T02:58:43.220Z,0.00
2018-04-07T02:59:43.219Z,0.00
2018-04-07T03:00:43.197Z,0.00
2018-04-07T03:01:43.185Z,0.00
2018-04-07T03:02:43.172Z,0.00
2018-04-07T03:03:43.222Z,0.00
2018-04-07T03:04:43.148Z,0.00
2018-04-07T03:05:43.135Z,0.00
2018-04-07T03:06:43.124Z,0.00
2018-04-07T03:07:43.112Z,0.00
2018-04-07T03:08:43.100Z,0.00
2018-04-07T03:09:43.087Z,0.00
2018-04-07T03:10:43.075Z,0.00
2018-04-07T03:11:43.063Z,0.00
2018-04-07T03:12:43.051Z,0.00
2018-04-07T03:13:43.054Z,0.00
2018-04-07T03:14:43.027Z,0.00
2018-04-07T03:15:43.220Z,0.00
2018-04-07T03:16:43.002Z,0.00
2018-04-07T03:17:42.994Z,0.00
2018-04-07T03:18:43.001Z,0.00
2018-04-07T03:19:42.977Z,0.00
2018-04-07T03:20:42.963Z,0.00
2018-04-07T03:21:42.987Z,0.00
2018-04-07T03:22:42.929Z,0.00
2018-04-07T03:23:42.917Z,0.00
2018-04-07T03:24:42.911Z,0.00
2018-04-07T03:25:42.893Z,0.00
2018-04-07T03:26:42.881Z,0.00
2018-04-07T03:27:42.869Z,0.00
2018-04-07T03:28:42.858Z,0.00
2018-04-07T03:29:42.851Z,0.00
2018-04-07T03:30:42.857Z,0.00
2018-04-07T03:31:42.822Z,0.00
2018-04-07T03:32:42.809Z,0.00
2018-04-07T03:33:42.796Z,0.00
2018-04-07T03:34:42.784Z,0.00
2018-04-07T03:35:42.774Z,0.00
2018-04-07T03:36:42.769Z,0.00
2018-04-07T03:37:42.749Z,0.00
2018-04-07T03:38:42.736Z,0.00
2018-04-07T03:39:42.728Z,0.00
2018-04-07T03:40:42.712Z,0.00
2018-04-07T03:41:42.699Z,0.00
2018-04-07T03:42:42.687Z,0.00
2018-04-07T03:43:42.675Z,0.00
2018-04-07T03:44:42.663Z,0.00
2018-04-07T03:45:42.664Z,0.00
2018-04-07T03:46:42.638Z,0.00
2018-04-07T03:47:42.832Z,0.00
2018-04-07T03:48:42.614Z,0.00
2018-04-07T03:49:42.601Z,0.00
2018-04-07T03:50:42.611Z,0.00
2018-04-07T03:51:42.586Z,0.00
2018-04-07T03:52:42.565Z,0.00
2018-04-07T03:53:42.593Z,0.00
2018-04-07T03:54:42.540Z,0.00
2018-04-07T03:55:42.528Z,0.00
2018-04-07T03:56:42.527Z,0.00
2018-04-07T03:57:42.503Z,0.00
2018-04-07T03:58:42.491Z,0.00
2018-04-07T03:59:42.479Z,0.00
2018-04-07T04:00:42.467Z,0.00
2018-04-07T04:01:42.461Z,0.00
2018-04-07T04:02:42.461Z,0.00
2018-04-07T04:03:42.430Z,0.00
2018-04-07T04:04:42.417Z,0.00
2018-04-07T04:05:42.405Z,0.00
2018-04-07T04:06:42.392Z,0.00
2018-04-07T04:07:42.381Z,0.00
2018-04-07T04:08:42.378Z,0.00
2018-04-07T04:09:42.355Z,0.00
2018-04-07T04:10:42.343Z,0.00
2018-04-07T04:11:42.331Z,0.00
2018-04-07T04:12:42.319Z,0.00
2018-04-07T04:13:42.309Z,0.00
2018-04-07T04:14:42.293Z,0.00
2018-04-07T04:15:42.281Z,0.00
2018-04-07T04:16:42.269Z,0.00
2018-04-07T04:17:42.262Z,0.00
2018-04-07T04:18:42.249Z,0.00
2018-04-07T04:19:42.294Z,0.00
2018-04-07T04:20:42.222Z,0.00
2018-04-07T04:21:42.207Z,0.00
2018-04-07T04:22:42.227Z,0.00
2018-04-07T04:23:42.204Z,0.00
2018-04-07T04:24:42.172Z,0.00
2018-04-07T04:25:42.178Z,0.00
2018-04-07T04:26:42.152Z,0.00
2018-04-07T04:27:42.133Z,0.00
2018-04-07T04:28:42.131Z,0.00
2018-04-07T04:29:42.107Z,0.00
2018-04-07T04:30:42.152Z,0.00
2018-04-07T04:31:42.098Z,0.00
2018-04-07T04:32:42.177Z,0.00
2018-04-07T04:33:42.062Z,0.00
2018-04-07T04:34:42.046Z,0.00
2018-04-07T04:35:42.032Z,0.00
2018-04-07T04:36:42.024Z,0.00
2018-04-07T04:37:42.011Z,0.00
2018-04-07T04:38:41.996Z,0.00
2018-04-07T04:39:41.986Z,0.00
2018-04-07T04:40:42.016Z,0.00
2018-04-07T04:41:41.956Z,0.00
2018-04-07T04:42:41.985Z,0.00
2018-04-07T04:43:41.937Z,0.00
2018-04-07T04:44:41.918Z,0.00
2018-04-07T04:46:41.918Z,0.00
2018-04-07T04:47:41.880Z,0.00
2018-04-07T04:48:41.899Z,0.00
2018-04-07T04:49:41.856Z,0.00
2018-04-07T04:50:41.844Z,0.00
2018-04-07T04:51:41.829Z,5.63
2018-04-07T04:52:41.819Z,5.63
2018-04-07T04:53:41.803Z,5.63
2018-04-07T04:54:41.792Z,5.63
2018-04-07T04:55:41.780Z,5.63
2018-04-07T04:56:41.792Z,5.63
2018-04-07T04:57:41.755Z,5.63
2018-04-07T04:58:41.799Z,11.25
2018-04-07T04:59:41.727Z,11.25
2018-04-07T05:00:41.800Z,11.25
2018-04-07T05:01:41.701Z,11.25
2018-04-07T05:02:41.693Z,16.88
2018-04-07T05:03:41.687Z,16.88
2018-04-07T05:04:41.766Z,16.88
2018-04-07T05:05:41.663Z,16.88
2018-04-07T05:06:41.642Z,22.50
2018-04-07T05:07:41.627Z,22.50
2018-04-07T05:08:41.616Z,22.50
2018-04-07T05:09:41.600Z,28.13
2018-04-07T05:10:41.600Z,28.13
2018-04-07T05:11:41.612Z,33.75
2018-04-07T05:12:41.567Z,33.75
2018-04-07T05:13:41.596Z,39.38
2018-04-07T05:14:41.542Z,39.38
2018-04-07T05:15:41.534Z,45.00
2018-04-07T05:16:41.524Z,45.00
2018-04-07T05:17:41.560Z,50.63
2018-04-07T05:18:41.491Z,50.63
2018-04-07T05:19:41.479Z,56.25
2018-04-07T05:20:41.461Z,56.25
2018-04-07T05:21:41.451Z,61.88
2018-04-07T05:22:41.447Z,61.88
2018-04-07T05:23:41.422Z,67.50
2018-04-07T05:24:41.413Z,73.13
2018-04-07T05:25:41.640Z,73.13
2018-04-07T05:26:41.386Z,78.75
2018-04-07T05:27:41.374Z,84.38
2018-04-07T05:28:41.361Z,84.38
2018-04-07T05:29:41.405Z,90.00
2018-04-07T05:30:41.337Z,90.00
2018-04-07T05:31:41.330Z,90.00
2018-04-07T05:32:41.316Z,90.00
2018-04-07T05:33:41.298Z,95.63
2018-04-07T05:34:41.285Z,101.25
2018-04-07T05:35:41.334Z,101.25
2018-04-07T05:36:41.270Z,106.88
2018-04-07T05:37:41.248Z,106.88
2018-04-07T05:38:41.293Z,112.50
2018-04-07T05:39:41.224Z,118.13
2018-04-07T05:40:41.246Z,118.13
2018-04-07T05:41:41.239Z,123.75
2018-04-07T05:42:41.186Z,123.75
2018-04-07T05:43:41.175Z,129.38
2018-04-07T05:44:41.157Z,129.38
2018-04-07T05:45:41.147Z,135.00
2018-04-07T05:46:41.133Z,140.63
2018-04-07T05:47:41.121Z,140.63
2018-04-07T05:48:41.323Z,140.63
2018-04-07T05:49:41.299Z,146.25
2018-04-07T05:50:41.133Z,151.88
2018-04-07T05:51:41.077Z,157.50
2018-04-07T05:52:41.069Z,151.88
2018-04-07T05:53:41.051Z,157.50
2018-04-07T05:54:41.067Z,157.50
2018-04-07T05:55:41.102Z,163.13
2018-04-07T05:56:41.012Z,163.13
2018-04-07T05:57:41.001Z,163.13
2018-04-07T05:58:40.987Z,168.75
2018-04-07T05:59:40.976Z,168.75
2018-04-07T06:00:40.963Z,168.75
2018-04-07T06:01:40.986Z,168.75
2018-04-07T06:02:40.943Z,174.38
2018-04-07T06:03:40.931Z,180.00
2018-04-07T06:04:40.961Z,180.00
2018-04-07T06:05:41.013Z,180.00
2018-04-07T06:06:40.938Z,185.63
2018-04-07T06:07:40.885Z,185.63
2018-04-07T06:08:40.870Z,185.63
2018-04-07T06:09:40.860Z,191.25
2018-04-07T06:10:41.064Z,196.88
2018-04-07T06:11:40.851Z,196.88
2018-04-07T06:12:40.828Z,202.50
2018-04-07T06:13:40.813Z,202.50
2018-04-07T06:14:40.801Z,202.50
2018-04-07T06:15:40.790Z,202.50
2018-04-07T06:16:40.808Z,202.50
2018-04-07T06:17:40.775Z,208.13
2018-04-07T06:18:40.755Z,208.13
2018-04-07T06:19:40.745Z,208.13
2018-04-07T06:20:40.733Z,202.50
2018-04-07T06:21:40.722Z,208.13
2018-04-07T06:22:40.716Z,208.13
2018-04-07T06:23:40.699Z,208.13
2018-04-07T06:24:40.795Z,213.75
2018-04-07T06:26:40.687Z,213.75
2018-04-07T06:27:40.655Z,219.38
2018-04-07T06:28:40.647Z,225.00
2018-04-07T06:29:40.634Z,225.00
2018-04-07T06:30:40.626Z,230.63
2018-04-07T06:32:40.623Z,241.88
2018-04-07T06:33:40.592Z,253.13
2018-04-07T06:34:40.579Z,253.13
2018-04-07T06:35:40.568Z,258.75
2018-04-07T06:36:40.557Z,258.75
2018-04-07T06:37:40.545Z,258.75
2018-04-07T06:38:40.535Z,258.75
2018-04-07T06:39:40.546Z,258.75
2018-04-07T06:40:40.517Z,264.38
2018-04-07T06:41:40.546Z,264.38
2018-04-07T06:42:40.554Z,270.00
2018-04-07T06:43:40.533Z,275.63
2018-04-07T06:44:40.479Z,281.25
2018-04-07T06:45:40.461Z,292.50
2018-04-07T06:46:40.457Z,286.88
2018-04-07T06:47:40.443Z,292.50
2018-04-07T06:48:40.649Z,292.50
2018-04-07T06:49:40.427Z,298.13
2018-04-07T06:50:40.409Z,303.75
2018-04-07T06:51:40.400Z,298.13
2018-04-07T06:52:40.390Z,303.75
2018-04-07T06:53:40.379Z,303.75
2018-04-07T06:54:40.369Z,309.38
2018-04-07T06:55:40.365Z,303.75
2018-04-07T06:56:40.557Z,303.75
2018-04-07T06:57:40.339Z,309.38
2018-04-07T06:58:40.330Z,309.38
2018-04-07T06:59:40.320Z,315.00
2018-04-07T07:00:40.313Z,320.63
2018-04-07T07:01:40.301Z,326.25
2018-04-07T07:02:40.308Z,331.88
2018-04-07T07:03:40.485Z,343.13
2018-04-07T07:04:40.271Z,348.75
2018-04-07T07:05:40.266Z,360.00
2018-04-07T07:06:40.260Z,365.63
2018-04-07T07:07:40.287Z,365.63
2018-04-07T07:08:40.234Z,371.25
2018-04-07T07:09:40.227Z,376.88
2018-04-07T07:10:40.216Z,393.75
2018-04-07T07:11:40.224Z,405.00
2018-04-07T07:12:40.198Z,405.00
2018-04-07T07:13:40.195Z,405.00
2018-04-07T07:14:40.182Z,405.00
2018-04-07T07:15:40.374Z,410.63
2018-04-07T07:16:40.209Z,421.88
2018-04-07T07:17:40.152Z,427.50
2018-04-07T07:18:40.145Z,433.13
2018-04-07T07:19:40.143Z,444.38
2018-04-07T07:20:40.129Z,450.00
2018-04-07T07:21:40.217Z,461.25
2018-04-07T07:22:40.185Z,466.88
2018-04-07T07:23:40.111Z,478.13
2018-04-07T07:24:40.093Z,483.75
2018-04-07T07:25:40.083Z,483.75
2018-04-07T07:26:40.076Z,489.38
2018-04-07T07:27:40.070Z,495.00
2018-04-07T07:28:40.263Z,511.88
2018-04-07T07:29:40.109Z,528.75
2018-04-07T07:30:40.050Z,573.75
2018-04-07T07:31:40.048Z,635.63
2018-04-07T07:32:40.032Z,731.25
2018-04-07T07:33:40.021Z,793.13
2018-04-07T07:34:40.018Z,894.38
2018-04-07T07:35:40.008Z,995.63
2018-04-07T07:36:40.049Z,990.00
2018-04-07T07:37:40.207Z,1125.00
2018-04-07T07:38:40.011Z,1158.75
2018-04-07T07:39:39.985Z,1119.38
2018-04-07T07:40:39.980Z,1125.00
2018-04-07T07:41:39.977Z,1158.75
2018-04-07T07:42:40.022Z,1068.75
2018-04-07T07:43:39.964Z,1153.13
2018-04-07T07:44:39.960Z,1136.25
2018-04-07T07:45:39.956Z,1237.50
2018-04-07T07:46:39.969Z,1321.88
2018-04-07T07:47:40.021Z,1423.13
2018-04-07T07:48:39.956Z,1501.88
2018-04-07T07:49:39.942Z,1440.00
2018-04-07T07:50:39.936Z,1490.63
2018-04-07T07:51:39.934Z,1535.63
2018-04-07T07:52:39.932Z,1552.50
2018-04-07T07:53:40.136Z,1541.25
2018-04-07T07:54:39.962Z,1552.50
2018-04-07T07:55:39.927Z,1608.75
2018-04-07T07:56:39.921Z,1569.38
2018-04-07T07:57:39.922Z,1479.38
2018-04-07T07:58:39.917Z,1411.88
2018-04-07T07:59:39.914Z,1518.75
2018-04-07T08:00:40.117Z,1507.50
2018-04-07T08:01:39.919Z,1468.13
2018-04-07T08:02:39.911Z,1546.88
2018-04-07T08:03:39.908Z,1575.00
2018-04-07T08:04:39.907Z,1597.50
2018-04-07T08:05:39.907Z,1676.25
2018-04-07T08:06:39.904Z,1648.13
2018-04-07T08:07:39.904Z,1755.00
2018-04-07T08:08:39.904Z,1704.38
2018-04-07T08:09:39.902Z,1642.50
2018-04-07T08:10:39.902Z,1569.38
2018-04-07T08:11:39.936Z,1828.13
2018-04-07T08:12:39.902Z,2075.63
2018-04-07T08:13:39.903Z,1777.50
2018-04-07T08:14:39.930Z,1968.75
2018-04-07T08:15:40.113Z,2182.50
2018-04-07T08:16:39.919Z,2193.75
2018-04-07T08:17:39.910Z,2193.75
2018-04-07T08:18:39.903Z,2148.75
2018-04-07T08:19:39.907Z,2205.00
2018-04-07T08:20:40.036Z,2210.63
2018-04-07T08:21:39.934Z,1957.50
2018-04-07T08:22:39.919Z,1771.88
2018-04-07T08:23:39.919Z,1980.00
2018-04-07T08:24:39.917Z,1580.63
2018-04-07T08:25:39.915Z,1400.63
2018-04-07T08:26:39.914Z,1648.13
2018-04-07T08:27:39.985Z,2098.13
2018-04-07T08:28:39.980Z,2053.13
2018-04-07T08:29:39.918Z,2008.13
2018-04-07T08:30:39.919Z,1929.38
2018-04-07T08:31:39.920Z,1974.38
2018-04-07T08:32:40.000Z,1867.50
2018-04-07T08:33:39.943Z,1895.63
2018-04-07T08:34:39.931Z,2154.38
2018-04-07T08:35:39.927Z,2103.75
2018-04-07T08:36:39.932Z,2070.00
2018-04-07T08:37:39.932Z,1996.88
2018-04-07T08:38:39.930Z,1940.63
2018-04-07T08:39:39.952Z,1923.75
2018-04-07T08:40:39.940Z,2041.88
2018-04-07T08:41:39.935Z,2070.00
2018-04-07T08:42:39.938Z,2103.75
2018-04-07T08:43:39.973Z,1923.75
2018-04-07T08:44:39.943Z,1951.88
2018-04-07T08:45:39.943Z,1935.00
2018-04-07T08:46:39.945Z,1963.13
2018-04-07T08:47:39.950Z,2053.13
2018-04-07T08:48:39.978Z,1884.38
2018-04-07T08:49:39.998Z,1850.63
2018-04-07T08:50:39.959Z,1755.00
2018-04-07T08:51:39.958Z,1732.50
2018-04-07T08:52:39.959Z,1681.88
2018-04-07T08:53:39.955Z,1771.88
2018-04-07T08:54:40.159Z,1676.25
2018-04-07T08:55:39.963Z,1631.25
2018-04-07T08:56:39.960Z,1625.63
2018-04-07T08:57:39.964Z,1659.38
2018-04-07T08:58:39.962Z,1732.50
2018-04-07T08:59:40.051Z,1642.50
2018-04-07T09:00:39.966Z,1496.25
2018-04-07T09:01:39.968Z,1591.88
2018-04-07T09:02:39.971Z,1597.50
2018-04-07T09:03:39.976Z,1659.38
2018-04-07T09:04:39.997Z,1670.63
2018-04-07T09:05:39.972Z,1541.25
2018-04-07T09:06:39.975Z,1676.25
2018-04-07T09:07:40.043Z,1755.00
2018-04-07T09:08:39.976Z,2041.88
2018-04-07T09:09:39.977Z,2210.63
2018-04-07T09:10:39.980Z,2306.25
2018-04-07T09:11:39.985Z,2244.38
2018-04-07T09:12:39.986Z,2238.75
2018-04-07T09:13:39.982Z,2255.63
2018-04-07T09:14:39.987Z,1985.63
2018-04-07T09:15:39.987Z,2036.25
2018-04-07T09:16:39.990Z,1901.25
2018-04-07T09:17:40.022Z,1845.00
2018-04-07T09:18:39.993Z,1923.75
2018-04-07T09:19:40.002Z,2002.50
2018-04-07T09:20:40.000Z,1963.13
2018-04-07T09:21:40.000Z,1856.25
2018-04-07T09:22:40.003Z,1805.63
2018-04-07T09:23:40.006Z,1890.00
2018-04-07T09:24:40.012Z,2019.38
2018-04-07T09:25:40.009Z,2047.50
2018-04-07T09:26:40.015Z,2058.75
2018-04-07T09:27:40.016Z,2081.25
2018-04-07T09:28:40.019Z,1777.50
2018-04-07T09:29:40.022Z,1575.00
2018-04-07T09:30:40.032Z,1794.38
2018-04-07T09:31:40.125Z,1856.25
2018-04-07T09:32:40.032Z,1726.88
2018-04-07T09:33:40.034Z,1586.25
2018-04-07T09:34:40.040Z,1839.38
2018-04-07T09:35:40.119Z,1940.63
2018-04-07T09:36:40.075Z,2025.00
2018-04-07T09:37:40.047Z,1974.38
2018-04-07T09:38:40.054Z,2019.38
2018-04-07T09:39:40.057Z,1929.38
2018-04-07T09:40:40.096Z,1816.88
2018-04-07T09:41:40.066Z,2030.63
2018-04-07T09:42:40.068Z,2396.25
2018-04-07T09:43:40.072Z,2390.63
2018-04-07T09:44:40.081Z,2463.75
2018-04-07T09:45:40.083Z,2581.88
2018-04-07T09:46:40.135Z,2565.00
2018-04-07T09:47:40.098Z,2480.63
2018-04-07T09:48:40.106Z,2503.13
2018-04-07T09:49:40.106Z,2441.25
2018-04-07T09:50:40.116Z,2351.25
2018-04-07T09:51:40.131Z,2385.00
2018-04-07T09:52:40.132Z,2137.50
2018-04-07T09:53:40.136Z,2238.75
2018-04-07T09:54:40.386Z,2373.75
2018-04-07T09:55:40.161Z,2559.38
2018-04-07T09:56:40.161Z,2255.63
2018-04-07T09:57:40.163Z,2041.88
2018-04-07T09:58:40.172Z,2413.13
2018-04-07T09:59:40.179Z,2435.63
2018-04-07T10:00:40.199Z,2407.50
2018-04-07T10:01:40.197Z,2514.38
2018-04-07T10:02:40.211Z,2300.63
2018-04-07T10:03:40.284Z,2441.25
2018-04-07T10:04:40.225Z,2542.50
2018-04-07T10:05:40.232Z,2317.50
2018-04-07T10:06:40.240Z,2255.63
2018-04-07T10:07:40.314Z,2323.13
2018-04-07T10:08:40.267Z,2340.00
2018-04-07T10:09:40.263Z,2300.63
2018-04-07T10:10:40.271Z,2193.75
2018-04-07T10:11:40.391Z,2430.00
2018-04-07T10:12:40.288Z,2418.75
2018-04-07T10:13:40.299Z,2227.50
2018-04-07T10:14:40.303Z,2688.75
2018-04-07T10:15:40.312Z,2801.25
2018-04-07T10:16:40.353Z,2711.25
2018-04-07T10:17:40.326Z,2638.13
2018-04-07T10:18:40.334Z,2649.38
2018-04-07T10:19:40.344Z,2840.63
2018-04-07T10:20:40.574Z,2790.00
2018-04-07T10:21:40.416Z,2795.63
2018-04-07T10:22:40.372Z,2705.63
2018-04-07T10:23:40.378Z,2739.38
2018-04-07T10:24:40.395Z,2750.63
2018-04-07T10:25:40.398Z,2739.38
2018-04-07T10:26:40.628Z,2778.75
2018-04-07T10:27:40.425Z,2615.63
2018-04-07T10:28:40.429Z,2548.13
2018-04-07T10:29:40.437Z,2806.88
2018-04-07T10:30:40.469Z,2761.88
2018-04-07T10:31:40.458Z,2722.50
2018-04-07T10:32:40.467Z,2745.00
2018-04-07T10:33:40.477Z,2716.88
2018-04-07T10:34:40.491Z,2790.00
2018-04-07T10:35:40.514Z,2829.38
2018-04-07T10:36:40.507Z,2666.25
2018-04-07T10:37:40.520Z,2773.13
2018-04-07T10:38:40.530Z,2835.00
2018-04-07T10:39:40.618Z,2711.25
2018-04-07T10:40:40.551Z,2638.13
2018-04-07T10:41:40.558Z,2818.13
2018-04-07T10:42:40.564Z,2913.75
2018-04-07T10:43:40.579Z,2986.88
2018-04-07T10:44:40.622Z,2941.88
2018-04-07T10:45:40.593Z,2745.00
2018-04-07T10:46:40.672Z,2739.38
2018-04-07T10:47:40.632Z,2750.63
2018-04-07T10:48:40.649Z,2812.50
2018-04-07T10:49:40.672Z,2891.25
2018-04-07T10:51:40.657Z,2700.00
2018-04-07T10:52:40.756Z,2840.63
2018-04-07T10:53:40.743Z,2598.75
2018-04-07T10:54:40.696Z,2525.63
2018-04-07T10:55:40.720Z,2716.88
2018-04-07T10:56:40.715Z,2761.88
2018-04-07T10:57:40.733Z,2700.00
2018-04-07T10:58:40.740Z,2806.88
2018-04-07T10:59:40.753Z,2806.88
2018-04-07T11:00:40.762Z,2840.63
2018-04-07T11:01:40.770Z,2829.38
2018-04-07T11:02:40.782Z,2761.88
2018-04-07T11:03:40.793Z,2863.13
2018-04-07T11:04:40.806Z,2958.75
2018-04-07T11:05:41.021Z,2896.88
2018-04-07T11:06:41.032Z,2722.50
2018-04-07T11:07:40.920Z,2694.38
2018-04-07T11:08:40.854Z,2626.88
2018-04-07T11:09:40.876Z,2722.50
2018-04-07T11:10:40.880Z,2745.00
2018-04-07T11:11:40.890Z,2677.50
2018-04-07T11:12:40.927Z,2784.38
2018-04-07T11:13:41.122Z,2463.75
2018-04-07T11:14:40.998Z,2176.88
2018-04-07T11:15:40.991Z,2306.25
2018-04-07T11:16:40.956Z,2531.25
2018-04-07T11:17:40.964Z,2570.63
2018-04-07T11:18:40.968Z,2857.50
2018-04-07T11:19:40.979Z,2745.00
2018-04-07T11:20:40.991Z,2598.75
2018-04-07T11:21:41.004Z,2660.63
2018-04-07T11:22:41.056Z,2705.63
2018-04-07T11:23:41.080Z,2767.50
2018-04-07T11:24:41.055Z,2925.00
2018-04-07T11:25:41.051Z,2891.25
2018-04-07T11:26:41.057Z,2835.00
2018-04-07T11:27:41.072Z,2868.75
2018-04-07T11:28:41.081Z,2851.88
2018-04-07T11:29:41.092Z,2835.00
2018-04-07T11:30:41.106Z,2801.25
2018-04-07T11:31:41.119Z,2851.88
2018-04-07T11:32:41.126Z,2896.88
2018-04-07T11:33:41.141Z,2868.75
2018-04-07T11:34:41.149Z,2840.63
2018-04-07T11:35:41.161Z,2823.75
2018-04-07T11:36:41.221Z,2795.63
2018-04-07T11:37:41.188Z,2739.38
2018-04-07T11:38:41.195Z,2722.50
2018-04-07T11:39:41.217Z,2795.63
2018-04-07T11:40:41.220Z,2750.63
2018-04-07T11:41:41.230Z,2863.13
2018-04-07T11:42:41.242Z,2902.50
2018-04-07T11:43:41.253Z,2790.00
2018-04-07T11:44:41.270Z,2767.50
2018-04-07T11:45:41.276Z,2823.75
2018-04-07T11:46:41.291Z,2891.25
2018-04-07T11:47:41.300Z,2795.63
2018-04-07T11:48:41.360Z,2503.13
2018-04-07T11:49:41.328Z,2463.75
2018-04-07T11:50:41.333Z,2829.38
2018-04-07T11:51:41.351Z,2784.38
2018-04-07T11:52:41.359Z,2801.25
2018-04-07T11:53:41.372Z,2795.63
2018-04-07T11:54:41.382Z,2733.75
2018-04-07T11:55:41.596Z,2863.13
2018-04-07T11:56:41.439Z,2812.50
2018-04-07T11:57:41.445Z,2716.88
2018-04-07T11:58:41.448Z,2722.50
2018-04-07T11:59:41.439Z,2728.13
2018-04-07T12:00:41.451Z,2784.38
2018-04-07T12:01:41.462Z,2700.00
2018-04-07T12:02:41.479Z,2587.50
2018-04-07T12:03:41.487Z,2694.38
2018-04-07T12:04:41.499Z,2711.25
2018-04-07T12:05:41.509Z,2711.25
2018-04-07T12:06:41.522Z,2660.63
2018-04-07T12:07:41.533Z,2525.63
2018-04-07T12:08:41.548Z,2508.75
2018-04-07T12:09:41.556Z,2598.75
2018-04-07T12:10:41.572Z,2660.63
2018-04-07T12:11:41.624Z,2739.38
2018-04-07T12:12:41.592Z,2660.63
2018-04-07T12:13:41.601Z,2610.00
2018-04-07T12:14:41.619Z,2491.88
2018-04-07T12:15:41.644Z,2430.00
2018-04-07T12:16:41.846Z,2542.50
2018-04-07T12:17:41.647Z,2576.25
2018-04-07T12:18:41.657Z,2452.50
2018-04-07T12:19:41.668Z,2548.13
2018-04-07T12:20:41.680Z,2626.88
2018-04-07T12:21:41.689Z,2508.75
2018-04-07T12:22:41.708Z,2486.25
2018-04-07T12:23:41.716Z,2553.75
2018-04-07T12:24:41.739Z,2632.50
2018-04-07T12:25:41.740Z,2548.13
2018-04-07T12:26:41.749Z,2536.88
2018-04-07T12:27:41.790Z,2525.63
2018-04-07T12:28:41.795Z,2430.00
2018-04-07T12:29:41.780Z,2441.25
2018-04-07T12:30:41.805Z,2469.38
2018-04-07T12:31:41.824Z,2396.25
2018-04-07T12:32:41.807Z,2430.00
2018-04-07T12:33:41.816Z,2486.25
2018-04-07T12:34:41.828Z,2362.50
2018-04-07T12:35:41.837Z,2536.88
2018-04-07T12:36:41.851Z,2514.38
2018-04-07T12:37:41.877Z,2475.00
2018-04-07T12:38:41.871Z,2463.75
2018-04-07T12:39:41.879Z,2435.63
2018-04-07T12:40:41.889Z,2413.13
2018-04-07T12:41:41.900Z,2401.88
2018-04-07T12:42:41.903Z,2446.88